LS Concorde — ZDHJ7 — position and weather

sailwx.info

Track history (hours):
 
Tides and Currents Weather Stations Pressure Air Temp Water Temp Dewpoint Dewpoint Depression Visibility Wind Speed Wind Dir Waves Ship Positions

LS Concorde

Last reported at 2015-May-22 11:33 UTC. Time now 2015-May-22 11:36 UTC.
Position N 51°29' E 000°54'.

Length 99 m; draft 4.9 m.

Type: Tanker. MMSI: 236329000.

Date/timePositionNaut miles runAvg speedWind from/ knotsBaromVisibWave heightAir tempDewpointWater temp
2015-May-22 11:33N 51°29' E 000°54'10 9.7
2015-May-22 10:33N 51°29' E 001°10'1211.8
2015-May-22 09:33N 51°28' E 001°29'2 1.9
2015-May-22 08:33N 51°30' E 001°28'0 0.0
2015-May-22 07:33N 51°30' E 001°28'0 0.0
2015-May-22 06:32N 51°30' E 001°28'0 0.0
2015-May-22 05:32N 51°30' E 001°28'0 0.0
2015-May-22 04:32N 51°30' E 001°28'0 0.0
2015-May-22 03:32N 51°30' E 001°28'0 0.1
2015-May-22 02:32N 51°30' E 001°28'1 1.1
2015-May-22 01:32N 51°30' E 001°30'0 0.1
2015-May-22 00:34N 51°30' E 001°30'0 0.1
2015-May-21 23:33N 51°30' E 001°30'0 0.0
2015-May-21 22:33N 51°30' E 001°30'0 0.1
2015-May-21 21:33N 51°30' E 001°30'0 0.1
2015-May-21 20:33N 51°30' E 001°30'0 0.0
2015-May-21 19:33N 51°30' E 001°30'1 1.2
2015-May-21 18:33N 51°30' E 001°28'0 0.0
2015-May-21 17:33N 51°30' E 001°28'0 0.3
2015-May-21 16:33N 51°30' E 001°29'0 0.4
2015-May-21 15:33N 51°31' E 001°29'0 0.1
2015-May-21 14:33N 51°31' E 001°29'0 0.0
2015-May-21 13:33N 51°31' E 001°29'0 0.1
2015-May-21 12:33N 51°30' E 001°29'0 0.0
2015-May-21 11:33N 51°30' E 001°29'0 0.0
2015-May-21 10:32N 51°30' E 001°29'1 0.6
2015-May-21 09:32N 51°30' E 001°28'0 0.1
2015-May-21 08:32N 51°30' E 001°28'0 0.0
2015-May-21 07:29N 51°30' E 001°28'0 0.0
2015-May-21 06:29N 51°30' E 001°28'0 0.0
2015-May-21 05:32N 51°30' E 001°28'0 0.0
2015-May-21 04:26N 51°30' E 001°28'0 0.0
2015-May-21 03:32N 51°30' E 001°28'0 0.0
2015-May-21 02:32N 51°30' E 001°28'2 2.3
2015-May-21 01:32N 51°32' E 001°30'0 0.1
2015-May-21 00:32N 51°32' E 001°30'0 0.1
2015-May-20 23:32N 51°32' E 001°30'0 0.0
2015-May-20 22:32N 51°32' E 001°30'0 0.1
2015-May-20 21:32N 51°32' E 001°30'0 0.1
2015-May-20 20:32N 51°32' E 001°30'1 1.2
2015-May-20 19:33N 51°31' E 001°30'1 1.0
2015-May-20 18:33N 51°30' E 001°28'0 0.0
2015-May-20 17:33N 51°30' E 001°28'0 0.0
2015-May-20 16:33N 51°30' E 001°28'0 0.0
2015-May-20 15:33N 51°30' E 001°28'0 0.0
2015-May-20 14:30N 51°30' E 001°28'0 0.1
2015-May-20 13:33N 51°30' E 001°28'0 0.0
2015-May-20 12:34N 51°30' E 001°28'0 0.0
2015-May-20 11:33N 51°30' E 001°28'0 0.0
2015-May-20 10:33N 51°30' E 001°28'0 0.0
2015-May-20 09:33N 51°30' E 001°28'0 0.1
2015-May-20 08:33N 51°30' E 001°28'0 0.1
2015-May-20 07:33N 51°30' E 001°28'0 0.0
2015-May-20 06:33N 51°30' E 001°29'0 0.0
2015-May-20 05:33N 51°30' E 001°29'0 0.0
2015-May-20 04:33N 51°30' E 001°28'0 0.0
2015-May-20 03:33N 51°30' E 001°28'0 0.0
2015-May-20 02:33N 51°30' E 001°28'0 0.1
2015-May-20 01:33N 51°30' E 001°28'0 0.2
2015-May-20 00:33N 51°30' E 001°28'2 2.4
2015-May-19 23:33N 51°32' E 001°30'0 0.1
2015-May-19 22:33N 51°32' E 001°30'0 0.1
2015-May-19 21:33N 51°32' E 001°30'0 0.2
2015-May-19 20:33N 51°32' E 001°30'2 1.7
2015-May-19 19:31N 51°30' E 001°30'0 0.0
2015-May-19 18:31N 51°30' E 001°30'0 0.0
2015-May-19 17:31N 51°30' E 001°30'0 0.0
2015-May-19 16:31N 51°30' E 001°30'0 0.0
2015-May-19 15:31N 51°30' E 001°30'0 0.1
2015-May-19 14:31N 51°30' E 001°30'0 0.1
2015-May-19 13:31N 51°30' E 001°29'0 0.1
2015-May-19 12:31N 51°30' E 001°29'1 0.7
2015-May-19 11:31N 51°30' E 001°28'0 0.1
2015-May-19 10:31N 51°30' E 001°28'0 0.1
2015-May-19 09:31N 51°30' E 001°28'0 0.1
2015-May-19 08:31N 51°30' E 001°28'0 0.1
2015-May-19 07:31N 51°30' E 001°28'0 0.0
2015-May-19 06:31N 51°30' E 001°28'0 0.0
2015-May-19 05:31N 51°30' E 001°28'0 0.0
2015-May-19 04:31N 51°30' E 001°28'0 0.0
2015-May-19 03:31N 51°30' E 001°28'0 0.0
2015-May-19 02:31N 51°30' E 001°28'0 0.0
2015-May-19 01:33N 51°30' E 001°28'0 0.1
2015-May-19 00:34N 51°30' E 001°28'0 0.1
2015-May-18 23:34N 51°30' E 001°28'0 0.0
2015-May-18 22:33N 51°30' E 001°28'0 0.1
2015-May-18 21:33N 51°30' E 001°28'0 0.5
2015-May-18 20:33N 51°30' E 001°29'0 0.1
2015-May-18 19:33N 51°30' E 001°29'0 0.5
2015-May-18 18:33N 51°30' E 001°28'0 0.3
2015-May-18 17:33N 51°30' E 001°28'0 0.0
2015-May-18 16:34N 51°30' E 001°28'0 0.0
2015-May-18 15:33N 51°30' E 001°28'0 0.0
2015-May-18 14:33N 51°30' E 001°28'0 0.0
2015-May-18 13:33N 51°30' E 001°28'0 0.1
2015-May-18 12:33N 51°30' E 001°28'0 0.1
2015-May-18 11:33N 51°30' E 001°28'0 0.0
2015-May-18 10:33N 51°30' E 001°28'0 0.1
2015-May-18 09:33N 51°30' E 001°28'0 0.0
2015-May-18 08:33N 51°30' E 001°28'0 0.0
2015-May-18 07:33N 51°30' E 001°28'0 0.2
2015-May-18 06:34N 51°30' E 001°28'0 0.0
2015-May-18 05:33N 51°30' E 001°28'0 0.0
2015-May-18 04:33N 51°30' E 001°28'1 0.7
2015-May-18 03:33N 51°31' E 001°29'0 0.0
2015-May-18 02:33N 51°31' E 001°29'0 0.0
2015-May-18 01:33N 51°31' E 001°29'0 0.0
2015-May-18 00:33N 51°31' E 001°29'0 0.1
2015-May-17 23:33N 51°31' E 001°29'0 0.1
2015-May-17 22:33N 51°31' E 001°29'0 0.2
2015-May-17 21:33N 51°30' E 001°29'0 0.5
2015-May-17 20:33N 51°30' E 001°28'0 0.0
2015-May-17 19:34N 51°30' E 001°28'0 0.0
2015-May-17 18:33N 51°30' E 001°28'0 0.1
2015-May-17 17:34N 51°30' E 001°28'0 0.0
2015-May-17 16:33N 51°30' E 001°28'0 0.0
2015-May-17 15:33N 51°30' E 001°28'0 0.0
2015-May-17 14:33N 51°30' E 001°28'0 0.0
2015-May-17 13:33N 51°30' E 001°28'0 0.0
2015-May-17 12:33N 51°30' E 001°28'0 0.1
2015-May-17 11:33N 51°30' E 001°28'3 3.1
2015-May-17 10:33N 51°30' E 001°33'1212.0
2015-May-17 09:34N 51°29' E 001°52'1010.0
2015-May-17 08:33N 51°23' E 002°06'9 8.8
2015-May-17 07:33N 51°14' E 002°05'7 7.5
2015-May-17 06:33N 51°11' E 001°54'6 5.6
2015-May-17 05:34N 51°07' E 001°47'5 5.2
2015-May-17 04:33N 51°03' E 001°43'6 5.9
2015-May-17 03:33N 50°58' E 001°50'1 1.2
2015-May-17 02:33N 50°58' E 001°52'0 0.1
2015-May-17 01:33N 50°58' E 001°52'0 0.0
2015-May-17 00:33N 50°58' E 001°52'0 0.3
2015-May-16 23:33N 50°58' E 001°51'0 0.0
2015-May-16 22:33N 50°58' E 001°51'0 0.1
2015-May-16 21:33N 50°58' E 001°51'0 0.3
2015-May-16 20:34N 50°58' E 001°52'1 0.7
2015-May-16 19:33N 50°58' E 001°51'5 4.8
2015-May-16 18:31N 51°01' E 001°44'1 0.6
2015-May-16 17:23N 51°01' E 001°43'3 4.1
2015-May-16 16:33N 51°04' E 001°43'1211.7
2015-May-16 15:33N 51°15' E 001°36'1312.9
2015-May-16 14:33N 51°27' E 001°31'3 3.1
2015-May-16 13:28N 51°30' E 001°29'0 0.0
2015-May-16 12:34N 51°30' E 001°29'0 0.0
2015-May-16 11:31N 51°30' E 001°29'0 0.0
2015-May-16 10:31N 51°30' E 001°28'0 0.0
2015-May-16 09:31N 51°30' E 001°28'0 0.0
2015-May-16 08:34N 51°30' E 001°28'0 0.0
2015-May-16 07:34N 51°30' E 001°28'0 0.0
2015-May-16 06:34N 51°30' E 001°28'0 0.1
2015-May-16 05:31N 51°30' E 001°29'0 0.1
2015-May-16 04:28N 51°30' E 001°29'0 0.0
2015-May-16 03:31N 51°30' E 001°29'0 0.0
2015-May-16 02:31N 51°30' E 001°29'0 0.0
2015-May-16 01:31N 51°30' E 001°29'0 0.0
2015-May-16 00:31N 51°30' E 001°29'0 0.0
2015-May-15 23:31N 51°30' E 001°29'0 0.1
2015-May-15 22:31N 51°30' E 001°29'0 0.1
2015-May-15 21:31N 51°30' E 001°29'0 0.0
2015-May-15 20:34N 51°30' E 001°28'0 0.0
2015-May-15 19:31N 51°30' E 001°29'0 0.0
2015-May-15 18:34N 51°30' E 001°29'0 0.0
2015-May-15 17:31N 51°30' E 001°29'0 0.0
2015-May-15 16:31N 51°30' E 001°29'2 2.2
2015-May-15 15:33N 51°31' E 001°32'0 0.1
2015-May-15 14:33N 51°31' E 001°32'0 0.1
2015-May-15 13:34N 51°31' E 001°32'2 1.5
2015-May-15 12:34N 51°30' E 001°30'2 2.0
2015-May-15 11:34N 51°29' E 001°27'10 9.4
2015-May-15 10:31N 51°29' E 001°11'1010.9
2015-May-15 09:34N 51°29' E 000°54'1010.0
2015-May-15 08:33N 51°30' E 000°38'3 3.2
2015-May-15 07:33N 51°31' E 000°33'0 0.0
2015-May-15 06:33N 51°31' E 000°33'0 0.0
2015-May-15 05:27N 51°31' E 000°33'0 0.0
2015-May-15 04:33N 51°31' E 000°33'0 0.0
2015-May-15 03:33N 51°31' E 000°33'0 0.0
2015-May-15 02:33N 51°31' E 000°33'0 0.0
2015-May-15 01:33N 51°31' E 000°33'0 0.0
2015-May-15 00:33N 51°31' E 000°33'0 0.0
2015-May-14 23:33N 51°31' E 000°33'0 0.0
2015-May-14 22:33N 51°31' E 000°33'0 0.0
2015-May-14 21:33N 51°31' E 000°33'0 0.0
2015-May-14 20:33N 51°31' E 000°33'0 0.0
2015-May-14 19:33N 51°31' E 000°33'0 0.0
2015-May-14 18:33N 51°31' E 000°33'0 0.0
2015-May-14 17:33N 51°31' E 000°33'0 0.0
2015-May-14 16:33N 51°31' E 000°33'0 0.0
2015-May-14 15:33N 51°31' E 000°33'0 0.0
2015-May-14 14:33N 51°31' E 000°33'1 1.1
2015-May-14 13:33N 51°30' E 000°35'1010.4
2015-May-14 12:33N 51°30' E 000°52'1010.2
2015-May-14 11:32N 51°29' E 001°08'9 9.3
2015-May-14 10:33N 51°28' E 001°23'4 3.6
2015-May-14 09:32N 51°30' E 001°28'0 0.1
2015-May-14 08:32N 51°30' E 001°28'0 0.0
2015-May-14 07:32N 51°30' E 001°28'0 0.0
2015-May-14 06:32N 51°30' E 001°28'0 0.0
2015-May-14 05:32N 51°30' E 001°28'0 0.0
2015-May-14 04:32N 51°30' E 001°28'0 0.0
2015-May-14 03:32N 51°30' E 001°28'0 0.0
2015-May-14 02:32N 51°30' E 001°28'0 0.1
2015-May-14 01:32N 51°30' E 001°28'2 1.7
2015-May-14 00:34N 51°30' E 001°31'0 0.0
2015-May-13 23:33N 51°30' E 001°31'0 0.1
2015-May-13 22:33N 51°30' E 001°31'0 0.1
2015-May-13 21:33N 51°30' E 001°31'0 0.1
2015-May-13 20:34N 51°30' E 001°31'0 0.0
2015-May-13 19:33N 51°30' E 001°30'0 0.0
2015-May-13 18:33N 51°30' E 001°30'0 0.0
2015-May-13 17:33N 51°30' E 001°31'2 1.5
2015-May-13 16:31N 51°30' E 001°28'0 0.0
2015-May-13 15:31N 51°30' E 001°28'0 0.0
2015-May-13 14:31N 51°30' E 001°28'0 0.0
2015-May-13 13:31N 51°30' E 001°28'0 0.0
2015-May-13 12:31N 51°30' E 001°28'0 0.0
2015-May-13 11:31N 51°30' E 001°28'0 0.0
2015-May-13 10:25N 51°30' E 001°28'0 0.0
2015-May-13 09:28N 51°30' E 001°28'0 0.0
2015-May-13 08:31N 51°30' E 001°28'0 0.0
2015-May-13 07:31N 51°30' E 001°28'0 0.0
2015-May-13 06:31N 51°30' E 001°28'0 0.0
2015-May-13 05:31N 51°30' E 001°28'0 0.0
2015-May-13 04:31N 51°30' E 001°28'1 1.3
2015-May-13 03:32N 51°30' E 001°30'0 0.1
2015-May-13 02:32N 51°30' E 001°30'0 0.0
2015-May-13 01:32N 51°30' E 001°30'0 0.1
2015-May-13 00:32N 51°30' E 001°30'1 1.4
2015-May-12 23:33N 51°30' E 001°28'0 0.0
2015-May-12 22:33N 51°30' E 001°28'0 0.0
2015-May-12 21:33N 51°30' E 001°28'0 0.0
2015-May-12 20:33N 51°30' E 001°28'0 0.0
2015-May-12 19:33N 51°30' E 001°28'0 0.0
2015-May-12 18:33N 51°30' E 001°28'0 0.0
2015-May-12 17:33N 51°30' E 001°28'0 0.0
2015-May-12 16:33N 51°30' E 001°28'0 0.0
2015-May-12 15:33N 51°30' E 001°28'0 0.0
2015-May-12 14:34N 51°30' E 001°28'0 0.0
2015-May-12 13:33N 51°30' E 001°28'0 0.0
2015-May-12 12:33N 51°30' E 001°28'  
Track history (hours):
 
Tides and Currents Weather Stations Pressure Air Temp Water Temp Dewpoint Dewpoint Depression Visibility Wind Speed Wind Dir Waves Ship Positions

LS Concorde

Last reported at 2015-May-22 11:33 UTC. Time now 2015-May-22 11:36 UTC.
Position N 51°29' E 000°54'.

Length 99 m; draft 4.9 m.

Type: Tanker. MMSI: 236329000.

Date/timePositionNaut miles runAvg speedWind from/ knotsBaromVisibWave heightAir tempDewpointWater temp
2015-May-22 11:33N 51°29' E 000°54'10 9.7
2015-May-22 10:33N 51°29' E 001°10'1211.8
2015-May-22 09:33N 51°28' E 001°29'2 1.9
2015-May-22 08:33N 51°30' E 001°28'0 0.0
2015-May-22 07:33N 51°30' E 001°28'0 0.0
2015-May-22 06:32N 51°30' E 001°28'0 0.0
2015-May-22 05:32N 51°30' E 001°28'0 0.0
2015-May-22 04:32N 51°30' E 001°28'0 0.0
2015-May-22 03:32N 51°30' E 001°28'0 0.1
2015-May-22 02:32N 51°30' E 001°28'1 1.1
2015-May-22 01:32N 51°30' E 001°30'0 0.1
2015-May-22 00:34N 51°30' E 001°30'0 0.1
2015-May-21 23:33N 51°30' E 001°30'0 0.0
2015-May-21 22:33N 51°30' E 001°30'0 0.1
2015-May-21 21:33N 51°30' E 001°30'0 0.1
2015-May-21 20:33N 51°30' E 001°30'0 0.0
2015-May-21 19:33N 51°30' E 001°30'1 1.2
2015-May-21 18:33N 51°30' E 001°28'0 0.0
2015-May-21 17:33N 51°30' E 001°28'0 0.3
2015-May-21 16:33N 51°30' E 001°29'0 0.4
2015-May-21 15:33N 51°31' E 001°29'0 0.1
2015-May-21 14:33N 51°31' E 001°29'0 0.0
2015-May-21 13:33N 51°31' E 001°29'0 0.1
2015-May-21 12:33N 51°30' E 001°29'0 0.0
2015-May-21 11:33N 51°30' E 001°29'0 0.0
2015-May-21 10:32N 51°30' E 001°29'1 0.6
2015-May-21 09:32N 51°30' E 001°28'0 0.1
2015-May-21 08:32N 51°30' E 001°28'0 0.0
2015-May-21 07:29N 51°30' E 001°28'0 0.0
2015-May-21 06:29N 51°30' E 001°28'0 0.0
2015-May-21 05:32N 51°30' E 001°28'0 0.0
2015-May-21 04:26N 51°30' E 001°28'0 0.0
2015-May-21 03:32N 51°30' E 001°28'0 0.0
2015-May-21 02:32N 51°30' E 001°28'2 2.3
2015-May-21 01:32N 51°32' E 001°30'0 0.1
2015-May-21 00:32N 51°32' E 001°30'0 0.1
2015-May-20 23:32N 51°32' E 001°30'0 0.0
2015-May-20 22:32N 51°32' E 001°30'0 0.1
2015-May-20 21:32N 51°32' E 001°30'0 0.1
2015-May-20 20:32N 51°32' E 001°30'1 1.2
2015-May-20 19:33N 51°31' E 001°30'1 1.0
2015-May-20 18:33N 51°30' E 001°28'0 0.0
2015-May-20 17:33N 51°30' E 001°28'0 0.0
2015-May-20 16:33N 51°30' E 001°28'0 0.0
2015-May-20 15:33N 51°30' E 001°28'0 0.0
2015-May-20 14:30N 51°30' E 001°28'0 0.1
2015-May-20 13:33N 51°30' E 001°28'0 0.0
2015-May-20 12:34N 51°30' E 001°28'0 0.0
2015-May-20 11:33N 51°30' E 001°28'0 0.0
2015-May-20 10:33N 51°30' E 001°28'0 0.0
2015-May-20 09:33N 51°30' E 001°28'0 0.1
2015-May-20 08:33N 51°30' E 001°28'0 0.1
2015-May-20 07:33N 51°30' E 001°28'0 0.0
2015-May-20 06:33N 51°30' E 001°29'0 0.0
2015-May-20 05:33N 51°30' E 001°29'0 0.0
2015-May-20 04:33N 51°30' E 001°28'0 0.0
2015-May-20 03:33N 51°30' E 001°28'0 0.0
2015-May-20 02:33N 51°30' E 001°28'0 0.1
2015-May-20 01:33N 51°30' E 001°28'0 0.2
2015-May-20 00:33N 51°30' E 001°28'2 2.4
2015-May-19 23:33N 51°32' E 001°30'0 0.1
2015-May-19 22:33N 51°32' E 001°30'0 0.1
2015-May-19 21:33N 51°32' E 001°30'0 0.2
2015-May-19 20:33N 51°32' E 001°30'2 1.7
2015-May-19 19:31N 51°30' E 001°30'0 0.0
2015-May-19 18:31N 51°30' E 001°30'0 0.0
2015-May-19 17:31N 51°30' E 001°30'0 0.0
2015-May-19 16:31N 51°30' E 001°30'0 0.0
2015-May-19 15:31N 51°30' E 001°30'0 0.1
2015-May-19 14:31N 51°30' E 001°30'0 0.1
2015-May-19 13:31N 51°30' E 001°29'0 0.1
2015-May-19 12:31N 51°30' E 001°29'1 0.7
2015-May-19 11:31N 51°30' E 001°28'0 0.1
2015-May-19 10:31N 51°30' E 001°28'0 0.1
2015-May-19 09:31N 51°30' E 001°28'0 0.1
2015-May-19 08:31N 51°30' E 001°28'0 0.1
2015-May-19 07:31N 51°30' E 001°28'0 0.0
2015-May-19 06:31N 51°30' E 001°28'0 0.0
2015-May-19 05:31N 51°30' E 001°28'0 0.0
2015-May-19 04:31N 51°30' E 001°28'0 0.0
2015-May-19 03:31N 51°30' E 001°28'0 0.0
2015-May-19 02:31N 51°30' E 001°28'0 0.0
2015-May-19 01:33N 51°30' E 001°28'0 0.1
2015-May-19 00:34N 51°30' E 001°28'0 0.1
2015-May-18 23:34N 51°30' E 001°28'0 0.0
2015-May-18 22:33N 51°30' E 001°28'0 0.1
2015-May-18 21:33N 51°30' E 001°28'0 0.5
2015-May-18 20:33N 51°30' E 001°29'0 0.1
2015-May-18 19:33N 51°30' E 001°29'0 0.5
2015-May-18 18:33N 51°30' E 001°28'0 0.3
2015-May-18 17:33N 51°30' E 001°28'0 0.0
2015-May-18 16:34N 51°30' E 001°28'0 0.0
2015-May-18 15:33N 51°30' E 001°28'0 0.0
2015-May-18 14:33N 51°30' E 001°28'0 0.0
2015-May-18 13:33N 51°30' E 001°28'0 0.1
2015-May-18 12:33N 51°30' E 001°28'0 0.1
2015-May-18 11:33N 51°30' E 001°28'0 0.0
2015-May-18 10:33N 51°30' E 001°28'0 0.1
2015-May-18 09:33N 51°30' E 001°28'0 0.0
2015-May-18 08:33N 51°30' E 001°28'0 0.0
2015-May-18 07:33N 51°30' E 001°28'0 0.2
2015-May-18 06:34N 51°30' E 001°28'0 0.0
2015-May-18 05:33N 51°30' E 001°28'0 0.0
2015-May-18 04:33N 51°30' E 001°28'1 0.7
2015-May-18 03:33N 51°31' E 001°29'0 0.0
2015-May-18 02:33N 51°31' E 001°29'0 0.0
2015-May-18 01:33N 51°31' E 001°29'0 0.0
2015-May-18 00:33N 51°31' E 001°29'0 0.1
2015-May-17 23:33N 51°31' E 001°29'0 0.1
2015-May-17 22:33N 51°31' E 001°29'0 0.2
2015-May-17 21:33N 51°30' E 001°29'0 0.5
2015-May-17 20:33N 51°30' E 001°28'0 0.0
2015-May-17 19:34N 51°30' E 001°28'0 0.0
2015-May-17 18:33N 51°30' E 001°28'0 0.1
2015-May-17 17:34N 51°30' E 001°28'0 0.0
2015-May-17 16:33N 51°30' E 001°28'0 0.0
2015-May-17 15:33N 51°30' E 001°28'0 0.0
2015-May-17 14:33N 51°30' E 001°28'0 0.0
2015-May-17 13:33N 51°30' E 001°28'0 0.0
2015-May-17 12:33N 51°30' E 001°28'0 0.1
2015-May-17 11:33N 51°30' E 001°28'3 3.1
2015-May-17 10:33N 51°30' E 001°33'1212.0
2015-May-17 09:34N 51°29' E 001°52'1010.0
2015-May-17 08:33N 51°23' E 002°06'9 8.8
2015-May-17 07:33N 51°14' E 002°05'7 7.5
2015-May-17 06:33N 51°11' E 001°54'6 5.6
2015-May-17 05:34N 51°07' E 001°47'5 5.2
2015-May-17 04:33N 51°03' E 001°43'6 5.9
2015-May-17 03:33N 50°58' E 001°50'1 1.2
2015-May-17 02:33N 50°58' E 001°52'0 0.1
2015-May-17 01:33N 50°58' E 001°52'0 0.0
2015-May-17 00:33N 50°58' E 001°52'0 0.3
2015-May-16 23:33N 50°58' E 001°51'0 0.0
2015-May-16 22:33N 50°58' E 001°51'0 0.1
2015-May-16 21:33N 50°58' E 001°51'0 0.3
2015-May-16 20:34N 50°58' E 001°52'1 0.7
2015-May-16 19:33N 50°58' E 001°51'5 4.8
2015-May-16 18:31N 51°01' E 001°44'1 0.6
2015-May-16 17:23N 51°01' E 001°43'3 4.1
2015-May-16 16:33N 51°04' E 001°43'1211.7
2015-May-16 15:33N 51°15' E 001°36'1312.9
2015-May-16 14:33N 51°27' E 001°31'3 3.1
2015-May-16 13:28N 51°30' E 001°29'0 0.0
2015-May-16 12:34N 51°30' E 001°29'0 0.0
2015-May-16 11:31N 51°30' E 001°29'0 0.0
2015-May-16 10:31N 51°30' E 001°28'0 0.0
2015-May-16 09:31N 51°30' E 001°28'0 0.0
2015-May-16 08:34N 51°30' E 001°28'0 0.0
2015-May-16 07:34N 51°30' E 001°28'0 0.0
2015-May-16 06:34N 51°30' E 001°28'0 0.1
2015-May-16 05:31N 51°30' E 001°29'0 0.1
2015-May-16 04:28N 51°30' E 001°29'0 0.0
2015-May-16 03:31N 51°30' E 001°29'0 0.0
2015-May-16 02:31N 51°30' E 001°29'0 0.0
2015-May-16 01:31N 51°30' E 001°29'0 0.0
2015-May-16 00:31N 51°30' E 001°29'0 0.0
2015-May-15 23:31N 51°30' E 001°29'0 0.1
2015-May-15 22:31N 51°30' E 001°29'0 0.1
2015-May-15 21:31N 51°30' E 001°29'0 0.0
2015-May-15 20:34N 51°30' E 001°28'0 0.0
2015-May-15 19:31N 51°30' E 001°29'0 0.0
2015-May-15 18:34N 51°30' E 001°29'0 0.0
2015-May-15 17:31N 51°30' E 001°29'0 0.0
2015-May-15 16:31N 51°30' E 001°29'2 2.2
2015-May-15 15:33N 51°31' E 001°32'0 0.1
2015-May-15 14:33N 51°31' E 001°32'0 0.1
2015-May-15 13:34N 51°31' E 001°32'2 1.5
2015-May-15 12:34N 51°30' E 001°30'2 2.0
2015-May-15 11:34N 51°29' E 001°27'10 9.4
2015-May-15 10:31N 51°29' E 001°11'1010.9
2015-May-15 09:34N 51°29' E 000°54'1010.0
2015-May-15 08:33N 51°30' E 000°38'3 3.2
2015-May-15 07:33N 51°31' E 000°33'0 0.0
2015-May-15 06:33N 51°31' E 000°33'0 0.0
2015-May-15 05:27N 51°31' E 000°33'0 0.0
2015-May-15 04:33N 51°31' E 000°33'0 0.0
2015-May-15 03:33N 51°31' E 000°33'0 0.0
2015-May-15 02:33N 51°31' E 000°33'0 0.0
2015-May-15 01:33N 51°31' E 000°33'0 0.0
2015-May-15 00:33N 51°31' E 000°33'0 0.0
2015-May-14 23:33N 51°31' E 000°33'0 0.0
2015-May-14 22:33N 51°31' E 000°33'0 0.0
2015-May-14 21:33N 51°31' E 000°33'0 0.0
2015-May-14 20:33N 51°31' E 000°33'0 0.0
2015-May-14 19:33N 51°31' E 000°33'0 0.0
2015-May-14 18:33N 51°31' E 000°33'0 0.0
2015-May-14 17:33N 51°31' E 000°33'0 0.0
2015-May-14 16:33N 51°31' E 000°33'0 0.0
2015-May-14 15:33N 51°31' E 000°33'0 0.0
2015-May-14 14:33N 51°31' E 000°33'1 1.1
2015-May-14 13:33N 51°30' E 000°35'1010.4
2015-May-14 12:33N 51°30' E 000°52'1010.2
2015-May-14 11:32N 51°29' E 001°08'9 9.3
2015-May-14 10:33N 51°28' E 001°23'4 3.6
2015-May-14 09:32N 51°30' E 001°28'0 0.1
2015-May-14 08:32N 51°30' E 001°28'0 0.0
2015-May-14 07:32N 51°30' E 001°28'0 0.0
2015-May-14 06:32N 51°30' E 001°28'0 0.0
2015-May-14 05:32N 51°30' E 001°28'0 0.0
2015-May-14 04:32N 51°30' E 001°28'0 0.0
2015-May-14 03:32N 51°30' E 001°28'0 0.0
2015-May-14 02:32N 51°30' E 001°28'0 0.1
2015-May-14 01:32N 51°30' E 001°28'2 1.7
2015-May-14 00:34N 51°30' E 001°31'0 0.0
2015-May-13 23:33N 51°30' E 001°31'0 0.1
2015-May-13 22:33N 51°30' E 001°31'0 0.1
2015-May-13 21:33N 51°30' E 001°31'0 0.1
2015-May-13 20:34N 51°30' E 001°31'0 0.0
2015-May-13 19:33N 51°30' E 001°30'0 0.0
2015-May-13 18:33N 51°30' E 001°30'0 0.0
2015-May-13 17:33N 51°30' E 001°31'2 1.5
2015-May-13 16:31N 51°30' E 001°28'0 0.0
2015-May-13 15:31N 51°30' E 001°28'0 0.0
2015-May-13 14:31N 51°30' E 001°28'0 0.0
2015-May-13 13:31N 51°30' E 001°28'0 0.0
2015-May-13 12:31N 51°30' E 001°28'0 0.0
2015-May-13 11:31N 51°30' E 001°28'0 0.0
2015-May-13 10:25N 51°30' E 001°28'0 0.0
2015-May-13 09:28N 51°30' E 001°28'0 0.0
2015-May-13 08:31N 51°30' E 001°28'0 0.0
2015-May-13 07:31N 51°30' E 001°28'0 0.0
2015-May-13 06:31N 51°30' E 001°28'0 0.0
2015-May-13 05:31N 51°30' E 001°28'0 0.0
2015-May-13 04:31N 51°30' E 001°28'1 1.3
2015-May-13 03:32N 51°30' E 001°30'0 0.1
2015-May-13 02:32N 51°30' E 001°30'0 0.0
2015-May-13 01:32N 51°30' E 001°30'0 0.1
2015-May-13 00:32N 51°30' E 001°30'1 1.4
2015-May-12 23:33N 51°30' E 001°28'0 0.0
2015-May-12 22:33N 51°30' E 001°28'0 0.0
2015-May-12 21:33N 51°30' E 001°28'0 0.0
2015-May-12 20:33N 51°30' E 001°28'0 0.0
2015-May-12 19:33N 51°30' E 001°28'0 0.0
2015-May-12 18:33N 51°30' E 001°28'0 0.0
2015-May-12 17:33N 51°30' E 001°28'0 0.0
2015-May-12 16:33N 51°30' E 001°28'0 0.0
2015-May-12 15:33N 51°30' E 001°28'0 0.0
2015-May-12 14:34N 51°30' E 001°28'0 0.0
2015-May-12 13:33N 51°30' E 001°28'0 0.0
2015-May-12 12:33N 51°30' E 001°28'  

Dump ship's entire track history